Time;durP1;ratioP1;P1;durP2;ratioP2;P2;SDS_P1;SDS_P2;PMS_P1;PMS_P2;Temp;Humidity;BMP_temperature;BMP_pressure;BME280_temperature;BME280_humidity;BME280_pressure;Samples;Min_cycle;Max_cycle;Signal;HPM_P1;HPM_P2
2021/09/04 00:01:30;;;;;;;;;;;;;;;-142.75;93.25;77298.69;5060681;28;19913;-79
2021/09/04 00:03:55;;;;;;;;;;;;;;;-142.75;92.88;77306.56;5060726;28;19937;-79
2021/09/04 00:06:20;;;;;;;;;;;;;;;-142.75;93.05;77304.59;5060941;28;19925;-78
2021/09/04 00:08:45;;;;;;;;;;;;;;;-142.75;92.87;77310.50;4993622;28;19932;-78
2021/09/04 00:11:11;;;;;;;;;;;;;;;-142.75;92.59;77312.47;4992936;28;19925;-79
2021/09/04 00:13:36;;;;;;;;;;;;;;;-142.75;92.81;77318.38;4994265;28;20387;-78
2021/09/04 00:16:02;;;;;;;;;;;;;;;-142.75;92.98;77310.50;4993890;28;19922;-78
2021/09/04 00:18:30;;;;;;;;;;;;;;;-142.75;92.67;77298.69;4993755;28;19913;-79
2021/09/04 00:20:55;;;;;;;;;;;;;;;-142.75;92.33;77294.75;4992516;28;20013;-77
2021/09/04 00:23:21;;;;;;;;;;;;;;;-142.75;91.79;77298.69;4994743;28;19917;-78
2021/09/04 00:25:46;;;;;;;;;;;;;;;-142.75;91.72;77292.78;5061532;28;19917;-79
2021/09/04 00:28:11;;;;;;;;;;;;;;;-142.75;92.20;77290.81;4994262;28;19921;-78
2021/09/04 00:30:36;;;;;;;;;;;;;;;-142.75;91.89;77284.91;4993228;28;19920;-78
2021/09/04 00:33:01;;;;;;;;;;;;;;;-142.75;91.53;77284.91;5061126;28;19913;-78
2021/09/04 00:35:26;;;;;;;;;;;;;;;-142.75;90.93;77294.75;4994687;28;20363;-78
2021/09/04 00:37:52;;;;;;;;;;;;;;;-142.75;90.92;77290.81;5060754;28;19921;-78
2021/09/04 00:40:17;;;;;;;;;;;;;;;-142.75;90.74;77302.63;5060873;28;20340;-78
2021/09/04 00:42:42;;;;;;;;;;;;;;;-142.75;90.71;77314.44;4992657;28;19918;-78
2021/09/04 00:45:08;;;;;;;;;;;;;;;-142.75;91.28;77312.47;5059755;28;19920;-78
2021/09/04 00:47:33;;;;;;;;;;;;;;;-142.75;91.64;77320.34;5060112;28;19917;-79
2021/09/04 00:49:58;;;;;;;;;;;;;;;-142.75;92.37;77318.38;5059502;28;19960;-79
2021/09/04 00:52:23;;;;;;;;;;;;;;;-142.75;92.40;77318.38;4992112;28;20302;-78
2021/09/04 00:54:49;;;;;;;;;;;;;;;-142.75;92.49;77314.44;4992773;28;20376;-78
2021/09/04 00:57:14;;;;;;;;;;;;;;;-142.75;92.25;77320.34;5059657;28;19942;-78
2021/09/04 00:59:39;;;;;;;;;;;;;;;-142.75;91.98;77326.25;5059427;28;20390;-78
2021/09/04 01:02:04;;;;;;;;;;;;;;;-142.75;92.37;77320.34;4992566;28;19955;-78
2021/09/04 01:04:30;;;;;;;;;;;;;;;-142.75;92.38;77330.19;5059643;28;19913;-79
2021/09/04 01:06:55;;;;;;;;;;;;;;;-142.75;92.23;77332.16;5059260;28;19922;-78
2021/09/04 01:09:20;;;;;;;;;;;;;;;-142.75;92.53;77340.03;4993020;28;19917;-79
2021/09/04 01:11:46;;;;;;;;;;;;;;;-142.75;92.52;77336.09;4992847;28;19920;-78
2021/09/04 01:14:11;;;;;;;;;;;;;;;-142.75;92.53;77322.31;5059353;28;20298;-79
2021/09/04 01:16:37;;;;;;;;;;;;;;;-142.75;92.62;77322.31;5059869;28;19925;-79
2021/09/04 01:19:02;;;;;;;;;;;;;;;-142.75;92.83;77324.28;4992244;28;20291;-78
2021/09/04 01:21:28;;;;;;;;;;;;;;;-142.75;92.83;77338.06;4991281;28;19938;-78
2021/09/04 01:23:53;;;;;;;;;;;;;;;-142.75;92.66;77338.06;5059421;28;19913;-78
2021/09/04 01:26:18;;;;;;;;;;;;;;;-142.75;92.53;77330.19;5059344;28;20012;-79
2021/09/04 01:28:44;;;;;;;;;;;;;;;-142.75;92.49;77328.22;5059029;28;20026;-78
2021/09/04 01:31:09;;;;;;;;;;;;;;;-142.75;92.15;77336.09;4993033;28;19914;-78
2021/09/04 01:33:41;;;;;;;;;;;;;;;-142.75;92.07;77338.06;4995220;28;19914;-78
2021/09/04 01:36:06;;;;;;;;;;;;;;;-142.75;92.23;77336.09;4995497;28;20008;-78
2021/09/04 01:38:31;;;;;;;;;;;;;;;-142.75;92.39;77334.13;4995353;28;19949;-79
2021/09/04 01:40:56;;;;;;;;;;;;;;;-142.75;92.26;77334.13;5062569;28;19983;-79
2021/09/04 01:43:21;;;;;;;;;;;;;;;-142.75;92.35;77334.13;5063483;28;20390;-78
2021/09/04 01:45:47;;;;;;;;;;;;;;;-142.75;91.93;77353.81;4995282;28;19959;-79
2021/09/04 01:48:12;;;;;;;;;;;;;;;-142.75;92.17;77357.75;5062990;28;19925;-78
2021/09/04 01:50:37;;;;;;;;;;;;;;;-142.75;92.42;77367.59;5061904;28;19922;-78
2021/09/04 01:53:02;;;;;;;;;;;;;;;-142.75;92.98;77359.72;5062581;28;19913;-79
2021/09/04 01:55:27;;;;;;;;;;;;;;;-142.75;93.37;77367.59;4995631;28;19918;-78
2021/09/04 01:57:52;;;;;;;;;;;;;;;-142.75;93.58;77357.75;5062830;28;20259;-79
2021/09/04 02:00:18;;;;;;;;;;;;;;;-142.75;93.50;77361.69;5063780;28;19922;-79
2021/09/04 02:02:43;;;;;;;;;;;;;;;-142.75;93.57;77365.63;4995809;28;19914;-78
2021/09/04 02:05:09;;;;;;;;;;;;;;;-142.75;93.58;77365.63;5064735;28;19914;-79
2021/09/04 02:07:35;;;;;;;;;;;;;;;-142.75;93.24;77377.44;4994719;28;19924;-79
2021/09/04 02:10:00;;;;;;;;;;;;;;;-142.75;93.04;77381.38;4994120;28;19914;-79
2021/09/04 02:12:25;;;;;;;;;;;;;;;-142.75;93.18;77369.56;4995814;28;20275;-78
2021/09/04 02:14:50;;;;;;;;;;;;;;;-142.75;93.28;77365.63;4995504;28;19918;-79
2021/09/04 02:17:16;;;;;;;;;;;;;;;-142.75;93.43;77361.69;4997326;28;19914;-78
2021/09/04 02:19:41;;;;;;;;;;;;;;;-142.75;93.04;77375.47;4996156;28;19924;-79
2021/09/04 02:22:06;;;;;;;;;;;;;;;-142.75;93.07;77379.41;4995551;28;19948;-78
2021/09/04 02:24:32;;;;;;;;;;;;;;;-142.75;92.92;77385.31;5064462;28;19914;-79
2021/09/04 02:26:58;;;;;;;;;;;;;;;-142.75;93.01;77377.44;4994475;28;19918;-78
2021/09/04 02:29:23;;;;;;;;;;;;;;;-142.75;92.93;77385.31;5060316;28;20000;-77
2021/09/04 02:31:48;;;;;;;;;;;;;;;-142.75;92.95;77381.38;4993163;28;19913;-78
2021/09/04 02:34:14;;;;;;;;;;;;;;;-142.75;92.89;77381.38;4995270;28;20555;-79
2021/09/04 02:36:39;;;;;;;;;;;;;;;-142.75;92.83;77377.44;5062856;28;19937;-78
2021/09/04 02:39:04;;;;;;;;;;;;;;;-142.75;93.37;77381.38;5063169;28;20271;-78
2021/09/04 02:41:30;;;;;;;;;;;;;;;-142.75;93.64;77385.31;5060688;28;19922;-78
2021/09/04 02:43:56;;;;;;;;;;;;;;;-142.75;93.31;77395.16;4993442;28;20005;-79
2021/09/04 02:46:21;;;;;;;;;;;;;;;-142.75;93.64;77401.06;5061468;28;19952;-78
2021/09/04 02:48:46;;;;;;;;;;;;;;;-142.75;94.01;77401.06;4994712;28;19921;-78
2021/09/04 02:51:11;;;;;;;;;;;;;;;-142.75;94.15;77397.13;5061590;28;19913;-78
2021/09/04 02:53:37;;;;;;;;;;;;;;;-142.75;94.23;77401.06;4994023;28;20354;-79
2021/09/04 02:56:02;;;;;;;;;;;;;;;-142.75;94.48;77405.00;4993908;28;19914;-77
2021/09/04 02:58:27;;;;;;;;;;;;;;;-142.75;94.67;77399.09;5060419;28;19974;-79
2021/09/04 03:00:52;;;;;;;;;;;;;;;-142.75;94.80;77401.06;5061283;28;19913;-79
2021/09/04 03:03:17;;;;;;;;;;;;;;;-142.75;94.59;77397.13;5061116;28;19993;-79
2021/09/04 03:05:43;;;;;;;;;;;;;;;-142.75;94.21;77397.13;5061515;28;20371;-77
2021/09/04 03:08:08;;;;;;;;;;;;;;;-142.75;94.39;77412.88;4993560;28;19918;-78
2021/09/04 03:10:33;;;;;;;;;;;;;;;-142.75;94.07;77424.69;5059747;28;19937;-80
2021/09/04 03:12:58;;;;;;;;;;;;;;;-142.75;93.92;77440.44;5061093;28;19920;-77
2021/09/04 03:15:23;;;;;;;;;;;;;;;-142.75;94.40;77432.56;4993577;28;19914;-78
2021/09/04 03:17:49;;;;;;;;;;;;;;;-142.75;95.01;77428.63;4993669;28;19996;-78
2021/09/04 03:20:14;;;;;;;;;;;;;;;-142.75;95.15;77424.69;5060852;28;19914;-79
2021/09/04 03:22:39;;;;;;;;;;;;;;;-142.75;95.26;77416.81;4993842;28;20444;-79
2021/09/04 03:25:05;;;;;;;;;;;;;;;-142.75;94.86;77412.88;5059917;28;20439;-80
2021/09/04 03:27:30;;;;;;;;;;;;;;;-142.75;94.53;77405.00;5060125;28;19917;-78
2021/09/04 03:29:56;;;;;;;;;;;;;;;-142.75;94.53;77405.00;5059850;28;19922;-78
2021/09/04 03:32:21;;;;;;;;;;;;;;;-142.75;94.52;77408.94;4993105;28;19949;-79
2021/09/04 03:34:46;;;;;;;;;;;;;;;-142.75;94.23;77412.88;5060729;28;19966;-78
2021/09/04 03:37:12;;;;;;;;;;;;;;;-142.75;94.18;77408.94;4993567;28;19914;-78
2021/09/04 03:39:37;;;;;;;;;;;;;;;-142.75;94.30;77416.81;4992003;28;20295;-78
2021/09/04 03:42:02;;;;;;;;;;;;;;;-142.75;94.39;77418.78;5059617;28;19936;-79
2021/09/04 03:44:28;;;;;;;;;;;;;;;-142.75;94.34;77418.78;4993864;28;19914;-78
2021/09/04 03:46:53;;;;;;;;;;;;;;;-142.75;94.41;77420.75;4992052;28;19970;-78
2021/09/04 03:49:18;;;;;;;;;;;;;;;-142.75;94.20;77416.81;4992634;28;19914;-79
2021/09/04 03:51:43;;;;;;;;;;;;;;;-142.75;94.42;77416.81;5058871;28;20015;-78
2021/09/04 03:54:08;;;;;;;;;;;;;;;-142.75;94.48;77416.81;4990894;28;20329;-78
2021/09/04 03:56:34;;;;;;;;;;;;;;;-142.75;94.92;77426.66;4992278;28;19967;-79
2021/09/04 03:58:59;;;;;;;;;;;;;;;-142.75;95.19;77424.69;4992527;28;19914;-78
2021/09/04 04:01:24;;;;;;;;;;;;;;;-142.75;95.67;77430.59;5058934;28;19936;-78
2021/09/04 04:03:50;;;;;;;;;;;;;;;-142.75;96.23;77436.50;4990959;28;19914;-78
2021/09/04 04:06:15;;;;;;;;;;;;;;;-142.75;96.62;77436.50;4991762;28;19914;-78
2021/09/04 04:08:40;;;;;;;;;;;;;;;-142.75;96.77;77446.34;5058601;28;19925;-77
2021/09/04 04:11:10;;;;;;;;;;;;;;;-142.75;97.34;77440.44;4991396;28;19949;-79
2021/09/04 04:13:35;;;;;;;;;;;;;;;-142.75;97.99;77428.63;5058762;28;20009;-78
2021/09/04 04:16:01;;;;;;;;;;;;;;;-142.75;98.17;77428.63;4992357;28;19961;-78
2021/09/04 04:18:26;;;;;;;;;;;;;;;-142.75;98.50;77424.69;5058122;28;19914;-79
2021/09/04 04:20:51;;;;;;;;;;;;;;;-142.75;98.55;77422.72;4991111;28;19929;-78
2021/09/04 04:23:16;;;;;;;;;;;;;;;-142.75;98.62;77424.69;5058565;28;20269;-77
2021/09/04 04:25:41;;;;;;;;;;;;;;;-142.75;99.03;77440.44;5059332;28;20426;-78
2021/09/04 04:28:07;;;;;;;;;;;;;;;-142.75;99.75;77444.38;4991335;28;19918;-78
2021/09/04 04:30:32;;;;;;;;;;;;;;;-142.75;100.00;77442.41;4990173;28;19914;-77
2021/09/04 04:32:57;;;;;;;;;;;;;;;-142.75;100.00;77438.47;5059138;28;20379;-78
2021/09/04 04:35:22;;;;;;;;;;;;;;;-142.75;100.00;77452.25;5059334;28;19957;-77
2021/09/04 04:37:47;;;;;;;;;;;;;;;-142.75;100.00;77450.28;5058503;28;19914;-78
2021/09/04 04:40:13;;;;;;;;;;;;;;;-142.75;100.00;77452.25;5058826;28;19920;-78
2021/09/04 04:42:38;;;;;;;;;;;;;;;-142.75;100.00;77448.34;5062429;22;19922;-75
2021/09/04 04:45:04;;;;;;;;;;;;;;;-142.75;100.00;77442.41;4967132;28;20455;-74
2021/09/04 04:47:31;;;;;;;;;;;;;;;-142.75;100.00;77436.50;5035389;28;19925;-75
2021/09/04 04:49:56;;;;;;;;;;;;;;;-142.75;100.00;77432.56;4968857;28;20055;-74
2021/09/04 04:52:21;;;;;;;;;;;;;;;-142.75;100.00;77442.41;5049532;28;20035;-75
2021/09/04 04:54:46;;;;;;;;;;;;;;;-142.75;100.00;77448.34;4978127;28;20336;-75
2021/09/04 04:57:11;;;;;;;;;;;;;;;-142.75;100.00;77448.34;4982961;28;19967;-76
2021/09/04 04:59:37;;;;;;;;;;;;;;;-142.75;100.00;77444.38;4969045;28;19914;-75
2021/09/04 05:02:02;;;;;;;;;;;;;;;-142.75;100.00;77432.56;5035740;28;20006;-75
2021/09/04 05:04:27;;;;;;;;;;;;;;;-142.75;100.00;77424.69;5035859;28;19997;-76
2021/09/04 05:06:52;;;;;;;;;;;;;;;-142.75;100.00;77420.75;4971842;28;19925;-75
2021/09/04 05:09:17;;;;;;;;;;;;;;;-142.75;100.00;77436.50;5039783;28;19921;-75
2021/09/04 05:11:43;;;;;;;;;;;;;;;-142.75;100.00;77432.56;4983172;28;20008;-75
2021/09/04 05:14:08;;;;;;;;;;;;;;;-142.75;100.00;77432.56;5059049;28;19914;-75
2021/09/04 05:16:33;;;;;;;;;;;;;;;-142.75;100.00;77426.66;4991788;28;19921;-74
2021/09/04 05:18:58;;;;;;;;;;;;;;;-142.75;100.00;77432.56;5055537;28;19914;-75
2021/09/04 05:21:23;;;;;;;;;;;;;;;-142.75;100.00;77428.63;5040805;28;20025;-74
2021/09/04 05:23:48;;;;;;;;;;;;;;;-142.75;100.00;77408.94;5059191;28;19921;-75
2021/09/04 05:26:14;;;;;;;;;;;;;;;-142.75;100.00;77405.00;4991594;28;20379;-75
2021/09/04 05:28:39;;;;;;;;;;;;;;;-142.75;100.00;77399.09;4976245;28;19974;-75
2021/09/04 05:31:04;;;;;;;;;;;;;;;-142.75;100.00;77397.13;4985479;28;19914;-75
2021/09/04 05:33:30;;;;;;;;;;;;;;;-142.75;100.00;77395.16;4992008;28;19928;-75
2021/09/04 05:35:55;;;;;;;;;;;;;;;-142.75;100.00;77389.25;4992292;28;20397;-75
2021/09/04 05:38:21;;;;;;;;;;;;;;;-142.75;100.00;77416.81;4981668;28;19913;-74
2021/09/04 05:40:46;;;;;;;;;;;;;;;-142.75;100.00;77424.69;4974168;28;19914;-75
2021/09/04 05:43:11;;;;;;;;;;;;;;;-142.75;100.00;77430.59;5058705;28;20367;-75
2021/09/04 05:45:36;;;;;;;;;;;;;;;-142.75;100.00;77420.75;4983592;28;19917;-74
2021/09/04 05:48:01;;;;;;;;;;;;;;;-142.75;100.00;77430.59;4973814;28;19979;-75
2021/09/04 05:50:27;;;;;;;;;;;;;;;-142.75;100.00;77426.66;4976192;28;20371;-74
2021/09/04 05:52:52;;;;;;;;;;;;;;;-142.75;100.00;77428.63;5051339;28;19921;-76
2021/09/04 05:55:17;;;;;;;;;;;;;;;-142.75;100.00;77420.75;5059523;28;19914;-74
2021/09/04 05:57:42;;;;;;;;;;;;;;;-142.75;100.00;77432.56;4992067;28;20451;-75
2021/09/04 06:00:08;;;;;;;;;;;;;;;-142.75;100.00;77428.63;4991415;28;19914;-75
2021/09/04 06:02:33;;;;;;;;;;;;;;;-142.75;100.00;77422.72;4991474;28;20371;-75
2021/09/04 06:04:58;;;;;;;;;;;;;;;-142.75;100.00;77414.84;4991905;28;20012;-74
2021/09/04 06:07:23;;;;;;;;;;;;;;;-142.75;100.00;77406.97;4991743;28;19961;-75
2021/09/04 06:09:48;;;;;;;;;;;;;;;-142.75;100.00;77408.94;4991396;28;19914;-74
2021/09/04 06:12:14;;;;;;;;;;;;;;;-142.75;100.00;77408.94;5045069;28;20390;-76
2021/09/04 06:14:39;;;;;;;;;;;;;;;-142.75;100.00;77389.25;5039030;28;19914;-75
2021/09/04 06:17:04;;;;;;;;;;;;;;;-142.75;100.00;77389.25;4972215;28;19914;-75
2021/09/04 06:19:29;;;;;;;;;;;;;;;-142.75;100.00;77383.34;4973610;28;20589;-75
2021/09/04 06:21:54;;;;;;;;;;;;;;;-142.75;100.00;77379.41;5037959;28;20000;-75
2021/09/04 06:24:20;;;;;;;;;;;;;;;-142.75;100.00;77377.44;4972194;28;19914;-74
2021/09/04 06:26:45;;;;;;;;;;;;;;;-142.75;100.00;77369.56;4986952;28;19914;-74
2021/09/04 06:29:10;;;;;;;;;;;;;;;-142.75;100.00;77377.44;4991367;28;19921;-74
2021/09/04 06:31:35;;;;;;;;;;;;;;;-142.75;100.00;77377.44;5058087;28;19968;-75
2021/09/04 06:34:00;;;;;;;;;;;;;;;-142.75;100.00;77375.47;4991477;28;19914;-75
2021/09/04 06:36:26;;;;;;;;;;;;;;;-142.75;100.00;77385.31;4991274;28;19922;-74
2021/09/04 06:38:51;;;;;;;;;;;;;;;-142.75;100.00;77399.09;5059013;28;19914;-75
2021/09/04 06:41:16;;;;;;;;;;;;;;;-142.75;100.00;77424.69;5058490;28;19921;-76
2021/09/04 06:43:41;;;;;;;;;;;;;;;-142.75;100.00;77430.59;4987456;28;20375;-75
2021/09/04 06:46:06;;;;;;;;;;;;;;;-142.75;100.00;77420.75;5053770;28;19997;-74
2021/09/04 06:48:32;;;;;;;;;;;;;;;-142.75;100.00;77432.56;4985530;28;20306;-75
2021/09/04 06:50:57;;;;;;;;;;;;;;;-142.75;100.00;77436.50;5044500;28;19997;-74
2021/09/04 06:53:22;;;;;;;;;;;;;;;-142.75;100.00;77440.44;4971548;28;19941;-75
2021/09/04 06:55:47;;;;;;;;;;;;;;;-142.75;100.00;77424.69;4971268;28;19921;-74
2021/09/04 06:58:12;;;;;;;;;;;;;;;-142.75;100.00;77424.69;5054822;28;20391;-74
2021/09/04 07:00:37;;;;;;;;;;;;;;;-142.75;100.00;77424.69;5056744;28;20410;-73
2021/09/04 07:03:03;;;;;;;;;;;;;;;-142.75;100.00;77412.88;4989578;28;19913;-74
2021/09/04 07:05:28;;;;;;;;;;;;;;;-142.75;100.00;77410.91;4989330;28;19971;-74
2021/09/04 07:07:53;;;;;;;;;;;;;;;-142.75;100.00;77405.00;4989542;28;19945;-74
2021/09/04 07:10:18;;;;;;;;;;;;;;;-142.75;100.00;77410.91;5056429;28;19921;-75
2021/09/04 07:12:43;;;;;;;;;;;;;;;-142.75;100.00;77395.16;4989523;28;20009;-74
2021/09/04 07:15:09;;;;;;;;;;;;;;;-142.75;100.00;77389.25;5056619;28;19913;-74
2021/09/04 07:17:34;;;;;;;;;;;;;;;-142.75;99.30;77373.50;4989622;28;19921;-74
2021/09/04 07:19:59;;;;;;;;;;;;;;;-142.75;98.29;77381.38;4988462;28;19918;-74
2021/09/04 07:22:24;;;;;;;;;;;;;;;-142.75;98.21;77355.78;4989578;28;19949;-75
2021/09/04 07:24:49;;;;;;;;;;;;;;;-142.75;97.53;77342.00;4989332;28;19910;-74
2021/09/04 07:27:15;;;;;;;;;;;;;;;-142.75;96.80;77312.47;4988927;28;19967;-73
2021/09/04 07:29:40;;;;;;;;;;;;;;;-142.75;95.51;77302.63;4983620;28;20001;-75
2021/09/04 07:32:05;;;;;;;;;;;;;;;-142.75;94.95;77286.88;4969738;28;19932;-74
2021/09/04 07:34:30;;;;;;;;;;;;;;;-142.75;93.52;77269.16;4970143;28;19917;-75
2021/09/04 07:36:55;;;;;;;;;;;;;;;-142.75;92.06;77255.38;4969668;28;19910;-74
2021/09/04 07:39:21;;;;;;;;;;;;;;;-142.75;91.67;77241.59;4969730;28;19917;-74
2021/09/04 07:41:46;;;;;;;;;;;;;;;-142.75;90.92;77231.75;5036057;28;19967;-74
2021/09/04 07:44:11;;;;;;;;;;;;;;;-142.75;89.38;77216.00;5037127;28;19928;-74
2021/09/04 07:46:36;;;;;;;;;;;;;;;-142.75;88.32;77216.00;4969904;28;19922;-75
2021/09/04 07:49:01;;;;;;;;;;;;;;;-142.75;87.11;77206.16;4976917;28;19949;-78
2021/09/04 07:51:27;;;;;;;;;;;;;;;-142.75;87.07;77196.31;4991046;28;19910;-76
2021/09/04 07:53:52;;;;;;;;;;;;;;;-142.75;86.48;77196.31;4976183;28;19910;-76
2021/09/04 07:56:17;;;;;;;;;;;;;;;-142.75;86.11;77182.53;4983388;28;19916;-76
2021/09/04 07:58:42;;;;;;;;;;;;;;;-142.75;85.59;77174.66;5050846;28;20446;-76
2021/09/04 08:01:07;;;;;;;;;;;;;;;-142.75;84.87;77166.78;4978549;28;19916;-75
2021/09/04 08:03:33;;;;;;;;;;;;;;;-142.75;83.93;77160.88;4980390;28;19914;-75
2021/09/04 08:05:58;;;;;;;;;;;;;;;-142.75;81.99;77217.97;4989401;28;20421;-74
2021/09/04 08:08:23;;;;;;;;;;;;;;;-142.75;83.72;77229.78;4989059;28;19939;-75
2021/09/04 08:10:48;;;;;;;;;;;;;;;-142.75;86.34;77290.81;5056167;28;19992;-75
2021/09/04 08:13:14;;;;;;;;;;;;;;;-142.75;88.14;77282.94;4988196;28;19913;-75
2021/09/04 08:15:39;;;;;;;;;;;;;;;-142.75;89.08;77275.06;5045660;28;20329;-75
2021/09/04 08:18:04;;;;;;;;;;;;;;;-142.75;88.33;77259.31;4985561;28;19983;-75
2021/09/04 08:20:29;;;;;;;;;;;;;;;-142.75;87.33;77233.72;5055562;28;19963;-75
2021/09/04 08:22:55;;;;;;;;;;;;;;;-142.75;86.69;77219.94;4976513;28;20039;-75
2021/09/04 08:25:20;;;;;;;;;;;;;;;-142.75;85.86;77219.94;4989559;28;19913;-75
2021/09/04 08:27:45;;;;;;;;;;;;;;;-142.75;86.34;77192.38;4981455;28;19941;-77
2021/09/04 08:30:10;;;;;;;;;;;;;;;-142.75;86.14;77172.69;5047410;28;19921;-76
2021/09/04 08:32:36;;;;;;;;;;;;;;;-142.75;85.44;77154.97;4988312;28;19918;-75
2021/09/04 08:35:01;;;;;;;;;;;;;;;-142.75;84.42;77127.41;4981112;28;20574;-74
2021/09/04 08:37:26;;;;;;;;;;;;;;;-142.75;82.51;77133.31;5034215;28;19996;-76
2021/09/04 08:39:51;;;;;;;;;;;;;;;-142.75;81.02;77153.00;4969116;28;20382;-75
2021/09/04 08:42:16;;;;;;;;;;;;;;;-142.75;81.80;77168.75;4968288;28;19920;-75
2021/09/04 08:44:42;;;;;;;;;;;;;;;-142.75;82.76;77184.50;5036339;28;19928;-75
2021/09/04 08:47:08;;;;;;;;;;;;;;;-142.75;84.38;77188.44;4971253;28;19972;-77
2021/09/04 08:49:34;;;;;;;;;;;;;;;-142.75;84.75;77182.53;4974397;28;19914;-76
2021/09/04 08:51:59;;;;;;;;;;;;;;;-142.75;85.23;77168.75;5035283;28;19962;-75
2021/09/04 08:54:24;;;;;;;;;;;;;;;-142.75;84.12;77176.63;4970700;28;20538;-75
2021/09/04 08:56:49;;;;;;;;;;;;;;;-142.75;84.38;77204.19;4969344;28;19914;-75
2021/09/04 08:59:15;;;;;;;;;;;;;;;-142.75;86.38;77251.44;5036029;28;19991;-74
2021/09/04 09:01:46;;;;;;;;;;;;;;;-142.75;87.47;77282.94;4968969;28;19918;-75
2021/09/04 09:04:15;;;;;;;;;;;;;;;-142.75;88.35;77286.88;4969118;28;19945;-74
2021/09/04 09:06:41;;;;;;;;;;;;;;;-142.75;88.33;77288.84;4971669;28;20387;-76
2021/09/04 09:09:22;;;;;;;;;;;;;;;-142.75;89.21;77249.47;4968592;28;19922;-75
2021/09/04 09:11:48;;;;;;;;;;;;;;;-142.75;85.80;77241.59;5035582;28;19957;-75
2021/09/04 09:14:14;;;;;;;;;;;;;;;-142.75;86.59;77219.94;4969251;28;19917;-76
2021/09/04 09:16:51;;;;;;;;;;;;;;;-142.75;86.50;77251.44;5053002;28;19918;-75
2021/09/04 09:19:19;;;;;;;;;;;;;;;-142.75;87.79;77259.31;5055864;28;19925;-76
2021/09/04 09:21:44;;;;;;;;;;;;;;;-142.75;87.36;77223.88;5046140;28;20016;-75
2021/09/04 09:24:10;;;;;;;;;;;;;;;-142.75;85.15;77192.38;4982149;28;20000;-74
2021/09/04 09:26:46;;;;;;;;;;;;;;;-142.75;84.81;77176.63;4987842;28;19914;-77
2021/09/04 09:29:18;;;;;;;;;;;;;;;-142.75;83.96;77176.63;4988092;28;19917;-75
2021/09/04 09:31:44;;;;;;;;;;;;;;;-142.75;84.15;77151.03;5054527;28;19913;-75
2021/09/04 09:34:09;;;;;;;;;;;;;;;-142.75;83.78;77156.94;4988481;28;19982;-75
2021/09/04 09:36:48;;;;;;;;;;;;;;;-142.75;83.38;77158.91;5043106;28;20356;-75
2021/09/04 09:39:13;;;;;;;;;;;;;;;-142.75;84.14;77180.56;4969333;28;20383;-76
2021/09/04 09:41:46;;;;;;;;;;;;;;;-142.75;84.07;77180.56;4968996;28;19967;-75
2021/09/04 09:44:21;;;;;;;;;;;;;;;-142.75;83.95;77147.09;5037589;28;20321;-74
2021/09/04 09:46:57;;;;;;;;;;;;;;;-142.75;83.29;77086.06;5054659;28;19937;-76
2021/09/04 09:49:29;;;;;;;;;;;;;;;-142.75;82.30;77038.81;4979056;28;19914;-76
2021/09/04 09:52:02;;;;;;;;;;;;;;;-142.75;80.43;77038.81;5039378;28;19918;-75
2021/09/04 09:54:30;;;;;;;;;;;;;;;-142.75;80.54;77023.06;5037918;28;19937;-75
2021/09/04 09:56:56;;;;;;;;;;;;;;;-142.75;79.35;77062.44;5039581;28;20379;-74
2021/09/04 09:59:21;;;;;;;;;;;;;;;-142.75;79.13;77056.53;4974829;28;19957;-75
2021/09/04 10:01:47;;;;;;;;;;;;;;;-142.75;79.11;77036.84;4971541;28;19918;-76
2021/09/04 10:04:13;;;;;;;;;;;;;;;-142.75;78.29;77030.94;5039256;28;19920;-75
2021/09/04 10:06:38;;;;;;;;;;;;;;;-142.75;77.45;76987.63;4971759;28;19941;-76
2021/09/04 10:09:05;;;;;;;;;;;;;;;-142.75;76.01;77013.22;4972566;28;19922;-75
2021/09/04 10:11:30;;;;;;;;;;;;;;;-142.75;76.39;77015.19;5038626;28;20624;-74
2021/09/04 10:13:55;;;;;;;;;;;;;;;-142.75;77.50;76962.03;4971683;28;19921;-76
2021/09/04 10:16:21;;;;;;;;;;;;;;;-142.75;75.12;76928.56;4971717;28;19918;-75
2021/09/04 10:18:46;;;;;;;;;;;;;;;-142.75;73.61;76885.25;4982807;28;19972;-75
2021/09/04 10:21:12;;;;;;;;;;;;;;;-142.75;72.23;76924.63;4971273;28;20410;-74
2021/09/04 10:23:39;;;;;;;;;;;;;;;-142.75;72.93;76836.03;5053525;28;19987;-76
2021/09/04 10:26:23;;;;;;;;;;;;;;;-142.75;70.89;76875.41;5052618;28;19918;-76
2021/09/04 10:29:14;;;;;;;;;;;;;;;-142.75;72.38;76958.09;4984283;28;19918;-76
2021/09/04 10:31:59;;;;;;;;;;;;;;;-142.75;73.50;76946.28;4979647;28;19918;-75
2021/09/04 10:34:26;;;;;;;;;;;;;;;-142.75;72.46;76891.16;4990569;28;20011;-75
2021/09/04 10:36:54;;;;;;;;;;;;;;;-142.75;70.58;76861.63;4971661;28;19922;-75
2021/09/04 10:39:20;;;;;;;;;;;;;;;-142.75;70.17;76851.78;4971378;28;20395;-75
2021/09/04 10:41:46;;;;;;;;;;;;;;;-142.75;69.97;76735.66;4969752;28;20003;-75
2021/09/04 10:44:11;;;;;;;;;;;;;;;-142.75;68.52;76629.34;4974324;28;19941;-75
2021/09/04 10:46:37;;;;;;;;;;;;;;;-142.75;63.35;76548.63;4990196;28;19917;-75
2021/09/04 10:49:03;;;;;;;;;;;;;;;-142.75;62.63;76584.06;4990961;28;19918;-75
2021/09/04 10:51:48;;;;;;;;;;;;;;;-142.75;63.07;76607.69;4990496;28;19914;-75
2021/09/04 10:54:32;;;;;;;;;;;;;;;-142.75;62.46;76519.13;4990191;28;20399;-75
2021/09/04 10:57:11;;;;;;;;;;;;;;;-142.75;62.53;76401.00;4982291;28;19914;-75
2021/09/04 10:59:56;;;;;;;;;;;;;;;-142.75;58.83;76280.94;4970041;28;19914;-76
2021/09/04 11:02:21;;;;;;;;;;;;;;;-142.75;55.18;76215.97;5043990;28;20428;-75
2021/09/04 11:04:55;;;;;;;;;;;;;;;-142.75;55.24;76212.03;4978408;28;19913;-76
2021/09/04 11:07:40;;;;;;;;;;;;;;;-142.75;55.13;76170.72;4990381;28;19918;-77
2021/09/04 11:10:21;;;;;;;;;;;;;;;-142.75;52.25;76137.25;4986365;28;20018;-76
2021/09/04 11:12:46;;;;;;;;;;;;;;;-142.75;52.32;76172.69;4977790;28;19948;-76
2021/09/04 11:15:23;;;;;;;;;;;;;;;-142.75;52.71;76184.50;4978389;28;19945;-75
2021/09/04 11:17:48;;;;;;;;;;;;;;;-142.75;52.44;76105.75;4975784;28;19935;-76
2021/09/04 11:20:14;;;;;;;;;;;;;;;-142.75;51.14;76099.84;4970288;28;20008;-77
2021/09/04 11:22:43;;;;;;;;;;;;;;;-142.75;50.93;76166.78;4975557;28;19914;-76
2021/09/04 11:25:09;;;;;;;;;;;;;;;-142.75;53.90;76341.97;5041345;28;19936;-76
2021/09/04 11:27:35;;;;;;;;;;;;;;;-142.75;55.36;76316.38;5057384;28;20383;-76
2021/09/04 11:30:00;;;;;;;;;;;;;;;-142.75;54.60;76219.91;5038764;28;19953;-77
2021/09/04 11:32:26;;;;;;;;;;;;;;;-142.75;53.94;76101.81;5038495;28;19949;-76
2021/09/04 11:34:52;;;;;;;;;;;;;;;-142.75;51.15;76091.97;4970703;28;19914;-76
2021/09/04 11:37:19;;;;;;;;;;;;;;;-142.75;51.61;76097.88;5037220;28;19983;-75
2021/09/04 11:39:45;;;;;;;;;;;;;;;-142.75;51.11;76036.88;4970612;28;19918;-75
2021/09/04 11:42:14;;;;;;;;;;;;;;;-142.75;50.13;76030.97;4972104;28;19936;-76
2021/09/04 11:45:05;;;;;;;;;;;;;;;-142.75;51.84;76133.31;4969320;28;20152;-74
2021/09/04 11:47:31;;;;;;;;;;;;;;;-142.75;54.23;76302.59;4978770;28;19917;-75
2021/09/04 11:49:57;;;;;;;;;;;;;;;-142.75;57.54;76357.69;5056039;28;19978;-75
2021/09/04 11:52:24;;;;;;;;;;;;;;;-142.75;56.99;76365.56;4970741;28;19914;-75
2021/09/04 11:54:50;;;;;;;;;;;;;;;-142.75;56.82;76373.44;4969161;28;19957;-76
2021/09/04 11:57:29;;;;;;;;;;;;;;;-142.75;57.23;76298.66;5038416;28;20299;-76
2021/09/04 11:59:57;;;;;;;;;;;;;;;-142.75;56.81;76340.00;4969814;28;20451;-76
2021/09/04 12:02:23;;;;;;;;;;;;;;;-142.75;57.36;76306.53;5035850;28;19921;-75
2021/09/04 12:04:48;;;;;;;;;;;;;;;-142.75;56.92;76277.00;4974202;28;20291;-76
2021/09/04 12:07:13;;;;;;;;;;;;;;;-142.75;55.87;76278.97;4983159;28;19922;-74
2021/09/04 12:09:38;;;;;;;;;;;;;;;-142.75;57.23;76302.59;4975452;28;19997;-77
2021/09/04 12:12:04;;;;;;;;;;;;;;;-142.75;57.57;76338.03;5048064;28;19920;-78
2021/09/04 12:14:30;;;;;;;;;;;;;;;-142.75;58.78;76367.53;4970188;28;20390;-75
2021/09/04 12:16:56;;;;;;;;;;;;;;;-142.75;58.21;76345.91;4969847;28;19964;-76
2021/09/04 12:19:21;;;;;;;;;;;;;;;-142.75;57.90;76312.44;4970371;28;19918;-77
2021/09/04 12:21:51;;;;;;;;;;;;;;;-142.75;57.61;76267.16;4969987;28;19976;-78